KWMC/WMC METAR and TAF weather

Enter ICAO airport designator
Station Type Date Time Source
KWMC METAR 2020/09/22 23:56 UTC NOAA

KWMC 222356Z AUTO 23012G18KT 10SM CLR 29/M04 A3005 RMK AO2 SLP136 T02941044 10300 20250 56007


Station Type Date Time Source
KWMC Decoded METAR 2020/09/22 23:56 UTC NOAA

WINNEMUCCA MUNICIPAL AIRPORT, NV, United States (KWMC) 40-54N 117-48W 1310M
Sep 22, 2020 - 07:56 PM EDT / 2020.09.22 2356 UTC
Wind: from the SW (230 degrees) at 14 MPH (12 KT) gusting to 21 MPH (18 KT):0
Visibility: 10 mile(s):0
Sky conditions: clear
Temperature: 84.9 F (29.4 C)
Dew Point: 24.1 F (-4.4 C)
Relative Humidity: 10%
Pressure (altimeter): 30.05 in. Hg (1017 hPa)
Pressure tendency: 0.02 inches (0.7 hPa) lower than three hours ago
ob: KWMC 222356Z AUTO 23012G18KT 10SM CLR 29/M04 A3005 RMK AO2 SLP136 T02941044 10300 20250 56007
cycle: 0

Station Type Date Time Source
KWMC TAF 2020/09/22 22:54 UTC NOAA

TAF
AMD KWMC 222150Z 2222/2318 26010G20KT 5SM HZ FEW100 SCT200
FM230300 24008KT 6SM HZ SCT200

Example: see airport list